sensor_id;sensor_type;location;lat;lon;timestamp;temperature;humidity
11656;DHT22;5884;43.618;1.438;2022-09-27T00:01:29;14.80;99.90
11656;DHT22;5884;43.618;1.438;2022-09-27T00:03:56;14.90;99.90
11656;DHT22;5884;43.618;1.438;2022-09-27T00:06:26;14.80;99.90
11656;DHT22;5884;43.618;1.438;2022-09-27T00:08:54;14.80;99.90
11656;DHT22;5884;43.618;1.438;2022-09-27T00:11:25;14.80;99.90
11656;DHT22;5884;43.618;1.438;2022-09-27T00:13:53;14.70;99.90
11656;DHT22;5884;43.618;1.438;2022-09-27T00:16:23;14.70;99.90
11656;DHT22;5884;43.618;1.438;2022-09-27T00:18:52;14.70;99.90
11656;DHT22;5884;43.618;1.438;2022-09-27T00:21:19;14.60;99.90
11656;DHT22;5884;43.618;1.438;2022-09-27T00:23:47;14.50;99.90
11656;DHT22;5884;43.618;1.438;2022-09-27T00:26:14;14.50;99.90
11656;DHT22;5884;43.618;1.438;2022-09-27T00:28:41;14.50;99.90
11656;DHT22;5884;43.618;1.438;2022-09-27T00:31:20;14.60;99.90
11656;DHT22;5884;43.618;1.438;2022-09-27T00:33:51;14.50;99.90
11656;DHT22;5884;43.618;1.438;2022-09-27T00:36:20;14.50;99.90
11656;DHT22;5884;43.618;1.438;2022-09-27T00:38:48;14.50;99.90
11656;DHT22;5884;43.618;1.438;2022-09-27T00:41:18;14.50;99.90
11656;DHT22;5884;43.618;1.438;2022-09-27T00:43:48;14.50;99.90
11656;DHT22;5884;43.618;1.438;2022-09-27T00:46:27;14.40;99.90
11656;DHT22;5884;43.618;1.438;2022-09-27T00:49:03;14.40;99.90
11656;DHT22;5884;43.618;1.438;2022-09-27T00:51:33;14.30;99.90
11656;DHT22;5884;43.618;1.438;2022-09-27T00:54:04;14.20;99.90
11656;DHT22;5884;43.618;1.438;2022-09-27T00:56:32;14.20;99.90
11656;DHT22;5884;43.618;1.438;2022-09-27T00:59:02;14.10;99.90
11656;DHT22;5884;43.618;1.438;2022-09-27T01:01:34;14.00;99.90
11656;DHT22;5884;43.618;1.438;2022-09-27T01:04:06;14.10;99.90
11656;DHT22;5884;43.618;1.438;2022-09-27T01:06:34;14.10;99.90
11656;DHT22;5884;43.618;1.438;2022-09-27T01:09:02;14.10;99.90
11656;DHT22;5884;43.618;1.438;2022-09-27T01:11:37;14.10;99.90
11656;DHT22;5884;43.618;1.438;2022-09-27T01:17:28;14.20;99.90
11656;DHT22;5884;43.618;1.438;2022-09-27T01:20:21;14.20;99.90
11656;DHT22;5884;43.618;1.438;2022-09-27T01:23:32;14.20;99.90
11656;DHT22;5884;43.618;1.438;2022-09-27T01:26:19;14.20;99.90
11656;DHT22;5884;43.618;1.438;2022-09-27T01:28:59;14.30;99.90
11656;DHT22;5884;43.618;1.438;2022-09-27T01:31:35;14.20;99.90
11656;DHT22;5884;43.618;1.438;2022-09-27T01:34:10;14.20;99.90
11656;DHT22;5884;43.618;1.438;2022-09-27T01:36:50;14.10;99.90
11656;DHT22;5884;43.618;1.438;2022-09-27T01:39:28;14.10;99.90
11656;DHT22;5884;43.618;1.438;2022-09-27T01:42:01;14.10;99.90
11656;DHT22;5884;43.618;1.438;2022-09-27T01:44:36;14.10;99.90
11656;DHT22;5884;43.618;1.438;2022-09-27T01:47:11;14.10;99.90
11656;DHT22;5884;43.618;1.438;2022-09-27T01:49:45;14.10;99.90
11656;DHT22;5884;43.618;1.438;2022-09-27T01:52:18;14.00;99.90
11656;DHT22;5884;43.618;1.438;2022-09-27T01:54:51;14.00;99.90
11656;DHT22;5884;43.618;1.438;2022-09-27T01:57:25;14.10;99.90
11656;DHT22;5884;43.618;1.438;2022-09-27T01:59:57;14.00;99.90
11656;DHT22;5884;43.618;1.438;2022-09-27T02:02:31;14.00;99.90
11656;DHT22;5884;43.618;1.438;2022-09-27T02:05:01;14.10;99.90
11656;DHT22;5884;43.618;1.438;2022-09-27T02:07:35;14.00;99.90
11656;DHT22;5884;43.618;1.438;2022-09-27T02:10:08;14.00;99.90
11656;DHT22;5884;43.618;1.438;2022-09-27T02:12:44;13.90;99.90
11656;DHT22;5884;43.618;1.438;2022-09-27T02:15:13;14.00;99.90
11656;DHT22;5884;43.618;1.438;2022-09-27T02:17:46;14.00;99.90
11656;DHT22;5884;43.618;1.438;2022-09-27T02:20:26;13.90;99.90
11656;DHT22;5884;43.618;1.438;2022-09-27T02:23:04;13.90;99.90
11656;DHT22;5884;43.618;1.438;2022-09-27T02:25:41;13.80;99.90
11656;DHT22;5884;43.618;1.438;2022-09-27T02:28:16;13.80;99.90
11656;DHT22;5884;43.618;1.438;2022-09-27T02:30:49;13.70;99.90
11656;DHT22;5884;43.618;1.438;2022-09-27T02:33:21;13.70;99.90
11656;DHT22;5884;43.618;1.438;2022-09-27T02:35:50;13.80;99.90
11656;DHT22;5884;43.618;1.438;2022-09-27T02:38:18;13.80;99.90
11656;DHT22;5884;43.618;1.438;2022-09-27T02:40:46;13.80;99.90
11656;DHT22;5884;43.618;1.438;2022-09-27T02:43:16;13.80;99.90
11656;DHT22;5884;43.618;1.438;2022-09-27T02:45:56;13.80;99.90
11656;DHT22;5884;43.618;1.438;2022-09-27T02:48:36;13.80;99.90
11656;DHT22;5884;43.618;1.438;2022-09-27T02:51:16;13.80;99.90
11656;DHT22;5884;43.618;1.438;2022-09-27T02:54:02;13.70;99.90
11656;DHT22;5884;43.618;1.438;2022-09-27T02:56:44;13.70;99.90
11656;DHT22;5884;43.618;1.438;2022-09-27T02:59:22;13.70;99.90
11656;DHT22;5884;43.618;1.438;2022-09-27T03:02:01;13.80;99.90
11656;DHT22;5884;43.618;1.438;2022-09-27T03:04:36;13.80;99.90
11656;DHT22;5884;43.618;1.438;2022-09-27T03:07:06;13.70;99.90
11656;DHT22;5884;43.618;1.438;2022-09-27T03:09:41;13.80;99.90
11656;DHT22;5884;43.618;1.438;2022-09-27T03:12:10;13.80;99.90
11656;DHT22;5884;43.618;1.438;2022-09-27T03:14:37;13.80;99.90
11656;DHT22;5884;43.618;1.438;2022-09-27T03:17:05;13.80;99.90
11656;DHT22;5884;43.618;1.438;2022-09-27T03:19:34;13.80;99.90
11656;DHT22;5884;43.618;1.438;2022-09-27T03:22:01;13.80;99.90
11656;DHT22;5884;43.618;1.438;2022-09-27T03:24:28;13.90;99.90
11656;DHT22;5884;43.618;1.438;2022-09-27T03:26:55;13.80;99.90
11656;DHT22;5884;43.618;1.438;2022-09-27T03:29:23;13.80;99.90
11656;DHT22;5884;43.618;1.438;2022-09-27T03:31:50;13.90;99.90
11656;DHT22;5884;43.618;1.438;2022-09-27T03:34:17;13.80;99.90
11656;DHT22;5884;43.618;1.438;2022-09-27T03:36:46;13.90;99.90
11656;DHT22;5884;43.618;1.438;2022-09-27T03:39:14;13.90;99.90
11656;DHT22;5884;43.618;1.438;2022-09-27T03:41:41;13.90;99.90
11656;DHT22;5884;43.618;1.438;2022-09-27T03:44:09;13.90;99.90
11656;DHT22;5884;43.618;1.438;2022-09-27T03:46:36;13.90;99.90
11656;DHT22;5884;43.618;1.438;2022-09-27T03:49:03;13.90;99.90
11656;DHT22;5884;43.618;1.438;2022-09-27T03:51:30;14.00;99.90
11656;DHT22;5884;43.618;1.438;2022-09-27T03:53:59;14.00;99.90
11656;DHT22;5884;43.618;1.438;2022-09-27T03:56:27;14.00;99.90
11656;DHT22;5884;43.618;1.438;2022-09-27T03:58:54;14.00;99.90
11656;DHT22;5884;43.618;1.438;2022-09-27T04:01:22;14.00;99.90
11656;DHT22;5884;43.618;1.438;2022-09-27T04:03:50;14.00;99.90
11656;DHT22;5884;43.618;1.438;2022-09-27T04:06:17;14.10;99.90
11656;DHT22;5884;43.618;1.438;2022-09-27T04:08:45;14.00;99.90
11656;DHT22;5884;43.618;1.438;2022-09-27T04:11:14;14.00;99.90
11656;DHT22;5884;43.618;1.438;2022-09-27T04:13:42;14.00;99.90
11656;DHT22;5884;43.618;1.438;2022-09-27T04:16:09;14.00;99.90
11656;DHT22;5884;43.618;1.438;2022-09-27T04:18:37;13.90;99.90
11656;DHT22;5884;43.618;1.438;2022-09-27T04:21:04;13.90;99.90
11656;DHT22;5884;43.618;1.438;2022-09-27T04:23:31;13.90;99.90
11656;DHT22;5884;43.618;1.438;2022-09-27T04:25:58;13.90;99.90
11656;DHT22;5884;43.618;1.438;2022-09-27T04:28:27;13.90;99.90
11656;DHT22;5884;43.618;1.438;2022-09-27T04:30:56;14.00;99.90
11656;DHT22;5884;43.618;1.438;2022-09-27T04:33:24;14.00;99.90
11656;DHT22;5884;43.618;1.438;2022-09-27T04:35:51;13.90;99.90
11656;DHT22;5884;43.618;1.438;2022-09-27T04:38:36;14.00;99.90
11656;DHT22;5884;43.618;1.438;2022-09-27T04:41:03;14.00;99.90
11656;DHT22;5884;43.618;1.438;2022-09-27T04:43:32;14.00;99.90
11656;DHT22;5884;43.618;1.438;2022-09-27T04:46:00;14.00;99.90
11656;DHT22;5884;43.618;1.438;2022-09-27T04:48:27;14.00;99.90
11656;DHT22;5884;43.618;1.438;2022-09-27T04:50:57;14.00;99.90
11656;DHT22;5884;43.618;1.438;2022-09-27T04:53:27;14.00;99.90
11656;DHT22;5884;43.618;1.438;2022-09-27T04:55:54;14.10;99.90
11656;DHT22;5884;43.618;1.438;2022-09-27T04:58:22;14.10;99.90
11656;DHT22;5884;43.618;1.438;2022-09-27T05:00:51;14.10;99.90
11656;DHT22;5884;43.618;1.438;2022-09-27T05:03:19;14.10;99.90
11656;DHT22;5884;43.618;1.438;2022-09-27T05:05:46;14.00;99.90
11656;DHT22;5884;43.618;1.438;2022-09-27T05:08:13;14.10;99.90
11656;DHT22;5884;43.618;1.438;2022-09-27T05:10:40;14.10;99.90
11656;DHT22;5884;43.618;1.438;2022-09-27T05:13:08;14.10;99.90
11656;DHT22;5884;43.618;1.438;2022-09-27T05:15:35;14.10;99.90
11656;DHT22;5884;43.618;1.438;2022-09-27T05:18:03;14.10;99.90
11656;DHT22;5884;43.618;1.438;2022-09-27T05:20:31;14.10;99.90
11656;DHT22;5884;43.618;1.438;2022-09-27T05:22:59;14.20;99.90
11656;DHT22;5884;43.618;1.438;2022-09-27T05:25:27;14.20;99.90
11656;DHT22;5884;43.618;1.438;2022-09-27T05:27:56;14.10;99.90
11656;DHT22;5884;43.618;1.438;2022-09-27T05:30:23;14.20;99.90
11656;DHT22;5884;43.618;1.438;2022-09-27T05:32:52;14.20;99.90
11656;DHT22;5884;43.618;1.438;2022-09-27T05:35:20;14.20;99.90
11656;DHT22;5884;43.618;1.438;2022-09-27T05:37:52;14.20;99.90
11656;DHT22;5884;43.618;1.438;2022-09-27T05:40:20;14.20;99.90
11656;DHT22;5884;43.618;1.438;2022-09-27T05:42:50;14.20;99.90
11656;DHT22;5884;43.618;1.438;2022-09-27T05:45:18;14.20;99.90
11656;DHT22;5884;43.618;1.438;2022-09-27T05:47:53;14.20;99.90
11656;DHT22;5884;43.618;1.438;2022-09-27T05:50:23;14.20;99.90
11656;DHT22;5884;43.618;1.438;2022-09-27T05:52:50;14.20;99.90
11656;DHT22;5884;43.618;1.438;2022-09-27T05:55:18;14.20;99.90
11656;DHT22;5884;43.618;1.438;2022-09-27T05:57:56;14.20;99.90
11656;DHT22;5884;43.618;1.438;2022-09-27T06:00:24;14.20;99.90
11656;DHT22;5884;43.618;1.438;2022-09-27T06:02:53;14.20;99.90
11656;DHT22;5884;43.618;1.438;2022-09-27T06:05:24;14.30;99.90
11656;DHT22;5884;43.618;1.438;2022-09-27T06:07:57;14.30;99.90
11656;DHT22;5884;43.618;1.438;2022-09-27T06:10:25;14.30;99.90
11656;DHT22;5884;43.618;1.438;2022-09-27T06:12:52;14.30;99.90
11656;DHT22;5884;43.618;1.438;2022-09-27T06:15:20;14.40;99.90
11656;DHT22;5884;43.618;1.438;2022-09-27T06:17:48;14.40;99.90
11656;DHT22;5884;43.618;1.438;2022-09-27T06:20:15;14.40;99.90
11656;DHT22;5884;43.618;1.438;2022-09-27T06:22:44;14.50;99.90
11656;DHT22;5884;43.618;1.438;2022-09-27T06:25:11;14.50;99.90
11656;DHT22;5884;43.618;1.438;2022-09-27T06:27:39;14.60;99.90
11656;DHT22;5884;43.618;1.438;2022-09-27T06:30:07;14.60;99.90
11656;DHT22;5884;43.618;1.438;2022-09-27T06:32:37;14.70;99.90
11656;DHT22;5884;43.618;1.438;2022-09-27T06:35:05;14.70;99.90
11656;DHT22;5884;43.618;1.438;2022-09-27T06:37:32;14.70;99.90
11656;DHT22;5884;43.618;1.438;2022-09-27T06:40:01;14.70;99.90
11656;DHT22;5884;43.618;1.438;2022-09-27T06:42:28;14.70;99.90
11656;DHT22;5884;43.618;1.438;2022-09-27T06:44:55;14.70;99.90
11656;DHT22;5884;43.618;1.438;2022-09-27T06:47:23;14.60;99.90
11656;DHT22;5884;43.618;1.438;2022-09-27T06:49:50;14.60;99.90
11656;DHT22;5884;43.618;1.438;2022-09-27T06:52:17;14.50;99.90
11656;DHT22;5884;43.618;1.438;2022-09-27T06:54:45;14.50;99.90
11656;DHT22;5884;43.618;1.438;2022-09-27T06:57:13;14.50;99.90
11656;DHT22;5884;43.618;1.438;2022-09-27T07:00:01;14.40;99.90
11656;DHT22;5884;43.618;1.438;2022-09-27T07:02:46;14.50;99.90
11656;DHT22;5884;43.618;1.438;2022-09-27T07:05:13;14.50;99.90
11656;DHT22;5884;43.618;1.438;2022-09-27T07:07:41;14.50;99.90
11656;DHT22;5884;43.618;1.438;2022-09-27T07:10:09;14.50;99.90
11656;DHT22;5884;43.618;1.438;2022-09-27T07:12:37;14.50;99.90
11656;DHT22;5884;43.618;1.438;2022-09-27T07:15:06;14.50;99.90
11656;DHT22;5884;43.618;1.438;2022-09-27T07:17:34;14.50;99.90
11656;DHT22;5884;43.618;1.438;2022-09-27T07:20:02;14.50;99.90
11656;DHT22;5884;43.618;1.438;2022-09-27T07:22:29;14.60;99.90
11656;DHT22;5884;43.618;1.438;2022-09-27T07:24:57;14.50;99.90
11656;DHT22;5884;43.618;1.438;2022-09-27T07:27:24;14.60;99.90
11656;DHT22;5884;43.618;1.438;2022-09-27T07:29:53;14.60;99.90
11656;DHT22;5884;43.618;1.438;2022-09-27T07:32:20;14.60;99.90
11656;DHT22;5884;43.618;1.438;2022-09-27T07:34:47;14.60;99.90
11656;DHT22;5884;43.618;1.438;2022-09-27T07:37:15;14.70;99.90
11656;DHT22;5884;43.618;1.438;2022-09-27T07:39:42;14.70;99.90
11656;DHT22;5884;43.618;1.438;2022-09-27T07:42:10;14.80;99.90
11656;DHT22;5884;43.618;1.438;2022-09-27T07:44:37;14.80;99.90
11656;DHT22;5884;43.618;1.438;2022-09-27T07:47:07;14.80;99.90
11656;DHT22;5884;43.618;1.438;2022-09-27T07:49:35;14.90;99.90
11656;DHT22;5884;43.618;1.438;2022-09-27T07:52:02;15.00;99.90
11656;DHT22;5884;43.618;1.438;2022-09-27T07:54:30;15.10;99.90
11656;DHT22;5884;43.618;1.438;2022-09-27T07:56:57;15.10;99.90
11656;DHT22;5884;43.618;1.438;2022-09-27T07:59:24;15.10;99.90
11656;DHT22;5884;43.618;1.438;2022-09-27T08:01:52;15.20;99.90
11656;DHT22;5884;43.618;1.438;2022-09-27T08:04:21;15.40;99.90
11656;DHT22;5884;43.618;1.438;2022-09-27T08:06:49;15.40;99.90
11656;DHT22;5884;43.618;1.438;2022-09-27T08:09:16;15.30;99.90
11656;DHT22;5884;43.618;1.438;2022-09-27T08:11:43;15.10;99.90
11656;DHT22;5884;43.618;1.438;2022-09-27T08:14:11;15.20;99.90
11656;DHT22;5884;43.618;1.438;2022-09-27T08:16:39;15.20;99.90
11656;DHT22;5884;43.618;1.438;2022-09-27T08:19:07;15.30;99.90
11656;DHT22;5884;43.618;1.438;2022-09-27T08:21:35;15.60;99.90
11656;DHT22;5884;43.618;1.438;2022-09-27T08:24:03;15.90;99.90
11656;DHT22;5884;43.618;1.438;2022-09-27T08:26:31;15.90;99.90
11656;DHT22;5884;43.618;1.438;2022-09-27T08:28:58;15.90;99.90
11656;DHT22;5884;43.618;1.438;2022-09-27T08:31:25;15.80;99.90
11656;DHT22;5884;43.618;1.438;2022-09-27T08:33:53;15.90;99.90
11656;DHT22;5884;43.618;1.438;2022-09-27T08:36:21;15.80;99.90
11656;DHT22;5884;43.618;1.438;2022-09-27T08:38:50;15.80;99.90
11656;DHT22;5884;43.618;1.438;2022-09-27T08:41:24;15.60;99.90
11656;DHT22;5884;43.618;1.438;2022-09-27T08:44:08;15.70;99.90
11656;DHT22;5884;43.618;1.438;2022-09-27T08:46:48;15.70;99.90
11656;DHT22;5884;43.618;1.438;2022-09-27T08:49:26;15.80;99.90
11656;DHT22;5884;43.618;1.438;2022-09-27T08:51:57;15.90;99.90
11656;DHT22;5884;43.618;1.438;2022-09-27T08:54:29;15.90;99.90
11656;DHT22;5884;43.618;1.438;2022-09-27T08:56:59;15.90;99.90
11656;DHT22;5884;43.618;1.438;2022-09-27T08:59:33;15.80;99.90
11656;DHT22;5884;43.618;1.438;2022-09-27T09:02:05;15.80;99.90
11656;DHT22;5884;43.618;1.438;2022-09-27T09:04:44;15.90;99.90
11656;DHT22;5884;43.618;1.438;2022-09-27T09:07:25;16.00;99.90
11656;DHT22;5884;43.618;1.438;2022-09-27T09:10:11;16.00;99.90
11656;DHT22;5884;43.618;1.438;2022-09-27T09:13:11;16.00;99.90
11656;DHT22;5884;43.618;1.438;2022-09-27T09:15:46;16.00;99.90
11656;DHT22;5884;43.618;1.438;2022-09-27T09:18:32;16.10;99.90
11656;DHT22;5884;43.618;1.438;2022-09-27T09:21:11;16.10;99.90
11656;DHT22;5884;43.618;1.438;2022-09-27T09:24:08;16.10;99.90
11656;DHT22;5884;43.618;1.438;2022-09-27T09:26:51;16.20;99.90
11656;DHT22;5884;43.618;1.438;2022-09-27T09:29:33;16.10;99.90
11656;DHT22;5884;43.618;1.438;2022-09-27T09:32:15;15.90;99.90
11656;DHT22;5884;43.618;1.438;2022-09-27T09:34:54;16.00;99.90
11656;DHT22;5884;43.618;1.438;2022-09-27T09:37:35;16.40;99.90
11656;DHT22;5884;43.618;1.438;2022-09-27T09:40:16;16.80;99.90
11656;DHT22;5884;43.618;1.438;2022-09-27T09:42:51;16.90;99.90
11656;DHT22;5884;43.618;1.438;2022-09-27T09:45:24;17.20;99.90
11656;DHT22;5884;43.618;1.438;2022-09-27T09:47:58;17.40;99.90
11656;DHT22;5884;43.618;1.438;2022-09-27T09:50:34;17.40;99.90
11656;DHT22;5884;43.618;1.438;2022-09-27T09:53:12;17.50;99.90
11656;DHT22;5884;43.618;1.438;2022-09-27T09:55:45;17.30;99.90
11656;DHT22;5884;43.618;1.438;2022-09-27T09:58:23;17.40;99.90
11656;DHT22;5884;43.618;1.438;2022-09-27T10:00:57;17.60;99.90
11656;DHT22;5884;43.618;1.438;2022-09-27T10:03:26;17.40;99.90
11656;DHT22;5884;43.618;1.438;2022-09-27T10:05:53;17.30;99.90
11656;DHT22;5884;43.618;1.438;2022-09-27T10:08:22;17.40;99.90
11656;DHT22;5884;43.618;1.438;2022-09-27T10:10:50;17.20;99.90
11656;DHT22;5884;43.618;1.438;2022-09-27T10:13:20;17.20;99.90
11656;DHT22;5884;43.618;1.438;2022-09-27T10:15:53;17.50;99.90
11656;DHT22;5884;43.618;1.438;2022-09-27T10:18:27;17.50;99.90
11656;DHT22;5884;43.618;1.438;2022-09-27T10:20:57;17.60;99.90
11656;DHT22;5884;43.618;1.438;2022-09-27T10:23:26;17.60;99.90
11656;DHT22;5884;43.618;1.438;2022-09-27T10:25:56;17.40;99.90
11656;DHT22;5884;43.618;1.438;2022-09-27T10:28:34;17.60;99.90
11656;DHT22;5884;43.618;1.438;2022-09-27T10:31:05;17.50;99.90
11656;DHT22;5884;43.618;1.438;2022-09-27T10:33:37;17.50;99.90
11656;DHT22;5884;43.618;1.438;2022-09-27T10:36:22;17.60;99.90
11656;DHT22;5884;43.618;1.438;2022-09-27T10:38:52;17.70;99.90
11656;DHT22;5884;43.618;1.438;2022-09-27T10:41:25;17.80;99.90
11656;DHT22;5884;43.618;1.438;2022-09-27T10:44:19;18.00;99.90
11656;DHT22;5884;43.618;1.438;2022-09-27T10:46:51;17.90;99.90
11656;DHT22;5884;43.618;1.438;2022-09-27T10:49:23;18.00;99.90
11656;DHT22;5884;43.618;1.438;2022-09-27T10:51:54;17.90;99.90
11656;DHT22;5884;43.618;1.438;2022-09-27T10:54:25;17.90;99.90
11656;DHT22;5884;43.618;1.438;2022-09-27T10:56:56;18.10;99.90
11656;DHT22;5884;43.618;1.438;2022-09-27T10:59:27;18.40;99.90
11656;DHT22;5884;43.618;1.438;2022-09-27T11:01:57;18.50;99.90
11656;DHT22;5884;43.618;1.438;2022-09-27T11:04:29;18.50;99.90
11656;DHT22;5884;43.618;1.438;2022-09-27T11:07:22;19.10;99.90
11656;DHT22;5884;43.618;1.438;2022-09-27T11:09:53;19.10;99.90
11656;DHT22;5884;43.618;1.438;2022-09-27T11:12:27;19.20;99.90
11656;DHT22;5884;43.618;1.438;2022-09-27T11:15:01;19.40;99.90
11656;DHT22;5884;43.618;1.438;2022-09-27T11:17:36;19.30;99.90
11656;DHT22;5884;43.618;1.438;2022-09-27T11:20:15;18.90;99.90
11656;DHT22;5884;43.618;1.438;2022-09-27T11:23:04;18.80;99.90
11656;DHT22;5884;43.618;1.438;2022-09-27T11:25:49;18.60;99.90
11656;DHT22;5884;43.618;1.438;2022-09-27T11:28:35;18.50;99.90
11656;DHT22;5884;43.618;1.438;2022-09-27T11:31:20;18.60;99.90
11656;DHT22;5884;43.618;1.438;2022-09-27T11:34:06;18.70;99.90
11656;DHT22;5884;43.618;1.438;2022-09-27T11:36:55;18.30;99.90
11656;DHT22;5884;43.618;1.438;2022-09-27T11:39:40;18.10;99.90
11656;DHT22;5884;43.618;1.438;2022-09-27T11:42:45;18.10;99.90
11656;DHT22;5884;43.618;1.438;2022-09-27T11:45:35;18.20;99.90
11656;DHT22;5884;43.618;1.438;2022-09-27T11:48:22;18.10;99.90
11656;DHT22;5884;43.618;1.438;2022-09-27T11:51:10;18.00;99.90
11656;DHT22;5884;43.618;1.438;2022-09-27T11:54:02;18.00;99.90
11656;DHT22;5884;43.618;1.438;2022-09-27T11:56:45;18.20;99.90
11656;DHT22;5884;43.618;1.438;2022-09-27T11:59:36;18.20;99.90
11656;DHT22;5884;43.618;1.438;2022-09-27T12:05:31;18.00;99.90
11656;DHT22;5884;43.618;1.438;2022-09-27T12:08:14;17.90;99.90
11656;DHT22;5884;43.618;1.438;2022-09-27T12:10:49;17.80;99.90
11656;DHT22;5884;43.618;1.438;2022-09-27T12:13:30;17.90;99.90
11656;DHT22;5884;43.618;1.438;2022-09-27T12:16:00;17.80;99.90
11656;DHT22;5884;43.618;1.438;2022-09-27T12:18:31;17.80;99.90
11656;DHT22;5884;43.618;1.438;2022-09-27T12:21:06;17.70;99.90
11656;DHT22;5884;43.618;1.438;2022-09-27T12:23:39;17.60;99.90
11656;DHT22;5884;43.618;1.438;2022-09-27T12:26:11;17.60;99.90
11656;DHT22;5884;43.618;1.438;2022-09-27T12:28:47;17.60;99.90
11656;DHT22;5884;43.618;1.438;2022-09-27T12:31:20;17.50;99.90
11656;DHT22;5884;43.618;1.438;2022-09-27T12:33:56;17.30;99.90
11656;DHT22;5884;43.618;1.438;2022-09-27T12:36:32;17.00;99.90
11656;DHT22;5884;43.618;1.438;2022-09-27T12:39:07;17.20;99.90
11656;DHT22;5884;43.618;1.438;2022-09-27T12:41:41;17.30;99.90
11656;DHT22;5884;43.618;1.438;2022-09-27T12:44:11;17.60;99.90
11656;DHT22;5884;43.618;1.438;2022-09-27T12:46:46;17.60;99.90
11656;DHT22;5884;43.618;1.438;2022-09-27T12:49:27;17.50;99.90
11656;DHT22;5884;43.618;1.438;2022-09-27T12:52:07;17.50;99.90
11656;DHT22;5884;43.618;1.438;2022-09-27T12:57:55;17.80;99.90
11656;DHT22;5884;43.618;1.438;2022-09-27T13:00:40;17.90;99.90
11656;DHT22;5884;43.618;1.438;2022-09-27T13:03:30;18.20;99.90
11656;DHT22;5884;43.618;1.438;2022-09-27T13:06:38;18.00;99.90
11656;DHT22;5884;43.618;1.438;2022-09-27T13:09:38;18.10;99.90
11656;DHT22;5884;43.618;1.438;2022-09-27T13:12:16;18.30;99.90
11656;DHT22;5884;43.618;1.438;2022-09-27T13:14:58;18.50;99.90
11656;DHT22;5884;43.618;1.438;2022-09-27T13:17:49;18.60;99.90
11656;DHT22;5884;43.618;1.438;2022-09-27T13:20:42;18.50;99.90
11656;DHT22;5884;43.618;1.438;2022-09-27T13:26:47;18.60;99.90
11656;DHT22;5884;43.618;1.438;2022-09-27T13:29:28;18.60;99.90
11656;DHT22;5884;43.618;1.438;2022-09-27T13:32:20;18.60;99.90
11656;DHT22;5884;43.618;1.438;2022-09-27T13:34:50;18.50;99.90
11656;DHT22;5884;43.618;1.438;2022-09-27T13:40:29;18.50;99.90
11656;DHT22;5884;43.618;1.438;2022-09-27T13:46:04;18.40;99.90
11656;DHT22;5884;43.618;1.438;2022-09-27T13:48:44;18.30;99.90
11656;DHT22;5884;43.618;1.438;2022-09-27T13:51:22;18.40;99.90
11656;DHT22;5884;43.618;1.438;2022-09-27T13:53:59;18.30;99.90
11656;DHT22;5884;43.618;1.438;2022-09-27T13:56:49;18.20;99.90
11656;DHT22;5884;43.618;1.438;2022-09-27T13:59:23;18.20;99.90
11656;DHT22;5884;43.618;1.438;2022-09-27T14:01:58;18.30;99.90
11656;DHT22;5884;43.618;1.438;2022-09-27T14:04:32;18.40;99.90
11656;DHT22;5884;43.618;1.438;2022-09-27T14:07:03;18.70;99.90
11656;DHT22;5884;43.618;1.438;2022-09-27T14:09:33;18.80;99.90
11656;DHT22;5884;43.618;1.438;2022-09-27T14:12:07;18.80;99.90
11656;DHT22;5884;43.618;1.438;2022-09-27T14:14:36;18.70;99.90
11656;DHT22;5884;43.618;1.438;2022-09-27T14:17:07;18.70;99.90
11656;DHT22;5884;43.618;1.438;2022-09-27T14:19:39;18.70;99.90
11656;DHT22;5884;43.618;1.438;2022-09-27T14:22:12;18.80;99.90
11656;DHT22;5884;43.618;1.438;2022-09-27T14:24:46;18.80;99.90
11656;DHT22;5884;43.618;1.438;2022-09-27T14:27:16;18.80;99.90
11656;DHT22;5884;43.618;1.438;2022-09-27T14:29:47;18.70;99.90
11656;DHT22;5884;43.618;1.438;2022-09-27T14:32:20;18.40;99.90
11656;DHT22;5884;43.618;1.438;2022-09-27T14:35:05;18.30;99.90
11656;DHT22;5884;43.618;1.438;2022-09-27T14:37:57;18.10;99.90
11656;DHT22;5884;43.618;1.438;2022-09-27T14:40:25;18.10;99.90
11656;DHT22;5884;43.618;1.438;2022-09-27T14:42:55;17.90;99.90
11656;DHT22;5884;43.618;1.438;2022-09-27T14:45:27;17.70;99.90
11656;DHT22;5884;43.618;1.438;2022-09-27T14:48:02;17.40;99.90
11656;DHT22;5884;43.618;1.438;2022-09-27T14:50:52;17.30;99.90
11656;DHT22;5884;43.618;1.438;2022-09-27T14:53:22;17.10;99.90
11656;DHT22;5884;43.618;1.438;2022-09-27T14:55:50;16.90;99.90
11656;DHT22;5884;43.618;1.438;2022-09-27T14:58:20;16.80;99.90
11656;DHT22;5884;43.618;1.438;2022-09-27T15:00:49;16.60;99.90
11656;DHT22;5884;43.618;1.438;2022-09-27T15:03:22;16.70;99.90
11656;DHT22;5884;43.618;1.438;2022-09-27T15:05:51;16.80;99.90
11656;DHT22;5884;43.618;1.438;2022-09-27T15:08:22;17.00;99.90
11656;DHT22;5884;43.618;1.438;2022-09-27T15:10:55;17.10;99.90
11656;DHT22;5884;43.618;1.438;2022-09-27T15:13:23;17.20;99.90
11656;DHT22;5884;43.618;1.438;2022-09-27T15:15:52;17.20;99.90
11656;DHT22;5884;43.618;1.438;2022-09-27T15:18:40;17.20;99.90
11656;DHT22;5884;43.618;1.438;2022-09-27T15:21:09;17.40;99.90
11656;DHT22;5884;43.618;1.438;2022-09-27T15:23:40;17.30;99.90
11656;DHT22;5884;43.618;1.438;2022-09-27T15:26:12;17.20;99.90
11656;DHT22;5884;43.618;1.438;2022-09-27T15:28:42;17.20;99.90
11656;DHT22;5884;43.618;1.438;2022-09-27T15:31:11;17.10;99.90
11656;DHT22;5884;43.618;1.438;2022-09-27T15:33:41;17.00;99.90
11656;DHT22;5884;43.618;1.438;2022-09-27T15:36:10;17.00;99.90
11656;DHT22;5884;43.618;1.438;2022-09-27T15:38:40;17.20;99.90
11656;DHT22;5884;43.618;1.438;2022-09-27T15:41:12;17.40;99.90
11656;DHT22;5884;43.618;1.438;2022-09-27T15:43:44;17.50;99.90
11656;DHT22;5884;43.618;1.438;2022-09-27T15:46:33;17.50;99.90
11656;DHT22;5884;43.618;1.438;2022-09-27T15:49:36;17.40;99.90
11656;DHT22;5884;43.618;1.438;2022-09-27T15:52:03;17.40;99.90
11656;DHT22;5884;43.618;1.438;2022-09-27T15:54:32;17.30;99.90
11656;DHT22;5884;43.618;1.438;2022-09-27T15:57:02;17.20;99.90
11656;DHT22;5884;43.618;1.438;2022-09-27T15:59:33;17.20;99.90
11656;DHT22;5884;43.618;1.438;2022-09-27T16:02:03;17.20;99.90
11656;DHT22;5884;43.618;1.438;2022-09-27T16:04:37;17.20;99.90
11656;DHT22;5884;43.618;1.438;2022-09-27T16:07:05;17.20;99.90
11656;DHT22;5884;43.618;1.438;2022-09-27T16:09:34;17.30;99.90
11656;DHT22;5884;43.618;1.438;2022-09-27T16:12:01;17.20;99.90
11656;DHT22;5884;43.618;1.438;2022-09-27T16:14:29;17.20;99.90
11656;DHT22;5884;43.618;1.438;2022-09-27T16:16:56;17.20;99.90
11656;DHT22;5884;43.618;1.438;2022-09-27T16:19:24;17.10;99.90
11656;DHT22;5884;43.618;1.438;2022-09-27T16:21:53;17.10;99.90
11656;DHT22;5884;43.618;1.438;2022-09-27T16:24:20;17.00;99.90
11656;DHT22;5884;43.618;1.438;2022-09-27T16:26:49;17.00;99.90
11656;DHT22;5884;43.618;1.438;2022-09-27T16:29:17;17.00;99.90
11656;DHT22;5884;43.618;1.438;2022-09-27T16:31:44;17.00;99.90
11656;DHT22;5884;43.618;1.438;2022-09-27T16:34:11;17.10;99.90
11656;DHT22;5884;43.618;1.438;2022-09-27T16:36:39;17.10;99.90
11656;DHT22;5884;43.618;1.438;2022-09-27T16:39:10;17.00;99.90
11656;DHT22;5884;43.618;1.438;2022-09-27T16:41:39;17.00;99.90